National Mine, MI

5:59 AM EDT on April 28, 2017 (GMT -0400)
Green Creek | | Change Station

Elev 1450 ft 46.43 °N, 87.78 °W | Updated 13 hours ago

Overcast
Overcast
29.5 °F
Feels Like 30 °F
N
0.0
Wind Variable Wind from North
Gusts 0.0 mph

Today
High -- | Low -- °F
--% Chance of Precip.
Yesterday
High -- | Low -- °F
Precip. -- in
Pressure 29.71 in
Visibility 10.0 miles
Clouds Overcast 3500 ft
Windchill 30 °F
Dew Point 22 °F
Humidity 72%
Rainfall 0.32 in
Snow Depth Not available.
6:41 AM 8:56 PM
Waxing Crescent, 5% visible
METAR KSAW 280936Z AUTO 21007KT 10SM OVC035 M02/M04 A2971 RMK AO2 T10171037
Pressure 29.71 in
Visibility 10.0 miles
Clouds Overcast 3500 ft
Windchill 30 °F
Dew Point 22 °F
Humidity 72%
Rainfall 0.32 in
Snow Depth Not available.
6:41 AM 8:56 PM
Waxing Crescent, 5% visible
METAR KSAW 280936Z AUTO 21007KT 10SM OVC035 M02/M04 A2971 RMK AO2 T10171037

Get Severe Weather Alerts

Thanks for signing up!

Be on the lookout for a verification email in your inbox.

You'll start receiving the daily forecast at 8 AM.

×

10-Day Weather Forecast

Almanac

Astronomy

Apr. 28, 2017 Rise Set
Actual Time
Civil Twilight
Nautical Twilight
Astronomical Twilight
Moon
Length of Visible Light
Length of Day
Tomorrow will be .
, % of the Moon is Illuminated

Today's Extremes

State Highs State Lows

Community

WunderPhotos

WunderBlog® & News

Nearby

Air Quality

  Air Quality AQ Index Pollutant
Not available.

Snow Depth

Station Depth Elevation

Earthquake Activity

City Distance Mag. Time & Date
Minimum magnitude displayed is 2.5.

Coastal Water Temperatures

Place Temperature

Stations

Nearby Weather Stations

Station Location Temp. Windchill Dew Point Humidity Wind Precip. Elev Updated Type
                   

Watches & Warnings

There are currently no watches in effect.